Time;durP1;ratioP1;P1;durP2;ratioP2;P2;SDS_P1;SDS_P2;PMS_P1;PMS_P2;Temp;Humidity;BMP_temperature;BMP_pressure;BME280_temperature;BME280_humidity;BME280_pressure;Samples;Min_cycle;Max_cycle;Signal;HPM_P1;HPM_P2
2022/04/27 00:01:48;;;;;;;2.47;2.22;;;;;;;15.25;53.47;101050.44;4950246;28;20051;-83
2022/04/27 00:04:15;;;;;;;3.60;2.40;;;;;;;14.68;54.45;100958.09;4949962;28;20051;-84
2022/04/27 00:06:41;;;;;;;3.88;2.17;;;;;;;15.51;54.12;101099.47;4945981;28;20052;-84
2022/04/27 00:09:08;;;;;;;2.90;2.50;;;;;;;15.26;53.96;101057.47;4931417;29;20290;-84
2022/04/27 00:11:35;;;;;;;5.03;2.17;;;;;;;15.49;54.48;101106.81;4930261;29;20581;-84
2022/04/27 00:14:03;;;;;;;3.35;2.47;;;;;;;15.30;54.02;101074.88;4931057;29;20055;-85
2022/04/27 00:16:30;;;;;;;4.70;2.70;;;;;;;14.07;54.01;100873.41;4931350;29;20058;-84
2022/04/27 00:18:57;;;;;;;2.58;2.38;;;;;;;15.45;53.74;101092.03;4945748;28;20143;-86
2022/04/27 00:21:24;;;;;;;2.85;2.20;;;;;;;15.51;54.68;101110.16;4945778;28;20056;-84
2022/04/27 00:23:50;;;;;;;2.22;2.03;;;;;;;15.64;54.86;101141.03;4948872;28;20509;-84
2022/04/27 00:26:17;;;;;;;1.92;1.83;;;;;;;15.40;55.78;101113.06;4949083;28;20098;-84
2022/04/27 00:28:44;;;;;;;3.80;2.47;;;;;;;15.31;55.42;101105.97;4948822;29;20063;-84
2022/04/27 00:31:11;;;;;;;3.60;2.15;;;;;;;15.23;55.96;101098.72;4950219;28;20059;-83
2022/04/27 00:33:38;;;;;;;5.80;2.58;;;;;;;15.34;55.86;101130.59;4950329;28;20048;-83
2022/04/27 00:36:04;;;;;;;3.00;2.65;;;;;;;14.82;56.43;101057.44;4950206;28;20055;-84
2022/04/27 00:38:31;;;;;;;3.10;2.20;;;;;;;15.17;56.30;101123.44;4948810;28;20063;-84
2022/04/27 00:40:58;;;;;;;2.53;2.15;;;;;;;15.13;56.29;101109.50;4949847;28;20051;-83
2022/04/27 00:43:43;;;;;;;3.67;2.30;;;;;;;15.16;56.25;101117.22;4948427;28;20067;-83
2022/04/27 00:46:10;;;;;;;3.28;2.22;;;;;;;15.32;56.31;101142.44;4948426;28;20146;-84
2022/04/27 00:48:41;;;;;;;2.95;2.55;;;;;;;15.00;55.37;101082.34;4948417;28;20145;-84
2022/04/27 00:51:12;;;;;;;3.78;2.47;;;;;;;14.89;55.56;101071.88;4948384;28;20280;-84
2022/04/27 00:53:40;;;;;;;2.58;1.80;;;;;;;15.29;55.21;101140.06;4948520;29;20313;-84
2022/04/27 00:56:07;;;;;;;6.43;2.40;;;;;;;13.84;55.42;100911.22;4948244;28;20047;-82
2022/04/27 00:58:39;;;;;;;5.05;2.78;;;;;;;15.28;56.11;101135.72;4948517;28;20493;-82
2022/04/27 01:01:21;;;;;;;;;;;;;;;15.33;57.66;101171.69;4948627;28;20142;-84
2022/04/27 01:03:48;;;;;;;6.05;3.70;;;;;;;15.12;57.96;101164.00;4950590;28;20578;-84
2022/04/27 01:06:15;;;;;;;6.22;3.67;;;;;;;14.81;58.50;101134.13;4949394;28;20055;-84
2022/04/27 01:08:42;;;;;;;4.47;3.05;;;;;;;14.28;60.02;101076.88;4948337;28;20106;-84
2022/04/27 01:11:09;;;;;;;7.63;3.40;;;;;;;14.65;59.93;101145.44;4948334;28;20055;-84
2022/04/27 01:13:38;;;;;;;4.05;3.55;;;;;;;14.56;59.72;101143.66;4947691;28;20652;-84
2022/04/27 01:16:05;;;;;;;9.00;3.58;;;;;;;14.27;59.86;101109.06;4947921;28;20280;-84
2022/04/27 01:18:33;;;;;;;3.85;3.55;;;;;;;14.37;60.40;101152.63;4947929;28;20122;-84
2022/04/27 01:21:02;;;;;;;6.05;3.65;;;;;;;14.36;60.75;101161.59;4947733;28;20047;-84
2022/04/27 01:23:29;;;;;;;4.60;3.88;;;;;;;14.35;61.19;101177.78;4949076;28;20051;-83
2022/04/27 01:26:05;;;;;;;3.72;3.40;;;;;;;13.58;61.56;101070.28;4948062;28;20051;-84
2022/04/27 01:28:33;;;;;;;3.63;3.33;;;;;;;14.09;61.17;101149.06;4948053;29;20414;-83
2022/04/27 01:31:02;;;;;;;4.45;3.75;;;;;;;14.49;60.32;101177.28;4947911;28;20051;-83
2022/04/27 01:33:38;;;;;;;4.55;3.50;;;;;;;12.86;61.14;100933.03;4948078;28;20063;-84
2022/04/27 01:36:07;;;;;;;6.57;4.28;;;;;;;14.18;61.27;101164.22;4948656;28;20055;-84
2022/04/27 01:38:35;;;;;;;7.28;4.35;;;;;;;13.62;61.66;101088.53;4949073;28;20086;-84
2022/04/27 01:41:05;;;;;;;5.57;4.03;;;;;;;14.29;61.86;101203.22;4947563;28;20413;-84
2022/04/27 01:43:33;;;;;;;5.53;4.15;;;;;;;14.22;61.93;101202.13;4948504;28;20493;-84
2022/04/27 01:46:00;;;;;;;6.80;4.18;;;;;;;14.16;61.91;101208.91;4948520;28;20331;-83
2022/04/27 01:48:27;;;;;;;6.03;4.97;;;;;;;13.68;61.89;101127.97;4946989;28;20056;-83
2022/04/27 01:50:54;;;;;;;7.43;5.10;;;;;;;14.03;63.19;101211.03;4947399;28;20058;-84
2022/04/27 01:56:07;;;;;;;7.88;6.03;;;;;;;13.36;64.64;101146.97;4948474;28;20656;-84
2022/04/27 01:58:34;;;;;;;8.85;6.85;;;;;;;13.60;65.10;101201.72;4947214;28;20046;-84
2022/04/27 02:01:00;;;;;;;6.40;5.80;;;;;;;13.59;65.08;101211.53;4948890;28;20062;-84
2022/04/27 02:03:27;;;;;;;6.93;6.32;;;;;;;13.30;64.99;101174.22;4947448;28;20058;-84
2022/04/27 02:05:55;;;;;;;6.57;5.93;;;;;;;13.26;65.15;101162.09;4944740;28;20342;-83
2022/04/27 02:08:21;;;;;;;7.18;6.47;;;;;;;13.04;65.02;101145.38;4945275;28;20419;-83
2022/04/27 02:10:48;;;;;;;6.15;5.40;;;;;;;13.35;64.90;101185.28;4930216;28;20494;-84
2022/04/27 02:13:15;;;;;;;7.55;5.90;;;;;;;13.61;65.59;101240.72;4928085;29;20048;-83
2022/04/27 02:15:42;;;;;;;7.22;5.85;;;;;;;13.52;65.14;101220.22;4928016;29;20058;-84
2022/04/27 02:18:09;;;;;;;7.28;5.72;;;;;;;13.35;64.99;101209.28;4943500;28;20043;-83
2022/04/27 02:20:35;;;;;;;6.10;5.45;;;;;;;13.02;65.13;101150.00;4943951;28;20087;-82
2022/04/27 02:23:02;;;;;;;10.50;5.50;;;;;;;13.51;64.80;101239.88;4946140;28;20055;-84
2022/04/27 02:25:29;;;;;;;5.70;5.20;;;;;;;13.23;65.12;101194.38;4946668;28;20544;-83
2022/04/27 02:27:56;;;;;;;9.02;5.95;;;;;;;13.30;65.18;101208.88;4948041;28;20074;-83
2022/04/27 02:30:22;;;;;;;12.68;6.15;;;;;;;13.45;65.77;101226.13;4947920;28;20064;-84
2022/04/27 02:32:49;;;;;;;6.80;5.13;;;;;;;13.40;65.00;101207.03;4947205;28;20319;-83
2022/04/27 02:35:16;;;;;;;9.80;5.68;;;;;;;13.48;64.28;101203.66;4950949;28;20047;-83
2022/04/27 02:37:42;;;;;;;5.40;4.88;;;;;;;13.25;64.74;101168.41;4954515;28;20058;-83
2022/04/27 02:40:10;;;;;;;8.40;5.30;;;;;;;13.03;65.06;101156.19;4953150;28;20051;-83
2022/04/27 02:42:36;;;;;;;6.38;5.25;;;;;;;13.15;65.19;101187.03;4954628;28;20206;-84
2022/04/27 02:45:03;;;;;;;9.88;5.68;;;;;;;13.42;65.29;101236.22;4953615;28;20063;-83
2022/04/27 02:47:31;;;;;;;8.55;5.68;;;;;;;13.14;65.72;101197.88;4953284;28;20061;-83
2022/04/27 02:52:43;;;;;;;7.47;5.50;;;;;;;13.33;66.58;101250.41;4954511;28;20051;-83
2022/04/27 02:55:09;;;;;;;7.35;5.65;;;;;;;13.25;66.54;101232.38;4952851;28;20051;-84
2022/04/27 02:57:36;;;;;;;7.28;6.10;;;;;;;13.39;66.46;101253.34;4953197;28;20058;-84
2022/04/27 03:00:04;;;;;;;10.60;6.35;;;;;;;13.36;67.08;101258.13;4952760;28;20051;-84
2022/04/27 03:02:30;;;;;;;8.18;6.07;;;;;;;13.36;67.04;101252.78;4952774;28;20055;-84
2022/04/27 03:04:57;;;;;;;6.95;6.25;;;;;;;13.36;66.99;101256.28;4952868;29;20061;-83
2022/04/27 03:07:24;;;;;;;6.57;5.90;;;;;;;13.38;67.11;101259.69;4949887;28;20044;-84
2022/04/27 03:09:50;;;;;;;8.80;6.30;;;;;;;13.15;67.16;101218.19;4933792;29;20059;-84
2022/04/27 03:12:17;;;;;;;7.90;5.82;;;;;;;13.44;66.91;101256.44;4949372;28;20052;-84
2022/04/27 03:14:44;;;;;;;6.53;5.93;;;;;;;13.50;66.40;101254.22;4949484;28;20052;-84
2022/04/27 03:17:10;;;;;;;9.48;6.38;;;;;;;13.45;66.27;101244.81;4949647;28;20051;-84
2022/04/27 03:19:37;;;;;;;7.38;5.88;;;;;;;13.02;65.67;101171.31;4934981;29;20062;-82
2022/04/27 03:22:04;;;;;;;6.85;6.25;;;;;;;13.42;66.41;101258.44;4948825;28;20063;-84
2022/04/27 03:24:31;;;;;;;8.10;5.75;;;;;;;13.61;66.26;101262.06;4949456;28;20054;-84
2022/04/27 03:26:58;;;;;;;7.40;5.70;;;;;;;13.07;66.40;101183.41;4952689;28;20055;-84
2022/04/27 03:29:25;;;;;;;12.18;6.03;;;;;;;13.35;66.75;101251.97;4952344;28;20055;-83
2022/04/27 03:31:52;;;;;;;7.15;5.80;;;;;;;12.33;67.26;101094.06;4952690;28;20055;-84
2022/04/27 03:34:18;;;;;;;7.07;5.95;;;;;;;13.38;67.21;101275.69;4953540;28;20047;-84
2022/04/27 03:36:45;;;;;;;7.40;6.15;;;;;;;13.34;67.42;101270.75;4953910;28;20062;-84
2022/04/27 03:39:11;;;;;;;7.25;6.10;;;;;;;13.38;67.13;101274.84;4952600;28;20047;-84
2022/04/27 03:41:58;;;;;;;12.63;6.75;;;;;;;13.37;67.02;101255.31;4952808;28;20082;-83
2022/04/27 03:44:25;;;;;;;8.32;6.60;;;;;;;13.34;66.54;101255.59;4953622;28;20059;-83
2022/04/27 03:46:51;;;;;;;6.93;6.22;;;;;;;13.06;66.60;101201.22;4948813;28;20513;-84
2022/04/27 03:49:18;;;;;;;9.45;5.38;;;;;;;13.40;67.03;101260.38;4949277;28;20083;-84
2022/04/27 03:51:45;;;;;;;7.30;6.05;;;;;;;13.19;66.92;101236.44;4950809;28;20404;-84
2022/04/27 03:54:12;;;;;;;7.25;6.55;;;;;;;13.26;67.58;101263.41;4950198;28;20051;-84
2022/04/27 03:56:38;;;;;;;7.80;6.55;;;;;;;13.07;67.37;101239.38;4949271;28;20058;-84
2022/04/27 03:59:05;;;;;;;9.07;6.88;;;;;;;13.51;67.21;101304.75;4950682;28;20078;-83
2022/04/27 04:01:31;;;;;;;6.93;6.22;;;;;;;13.42;66.69;101285.09;4950641;28;20051;-84
2022/04/27 04:03:59;;;;;;;11.05;6.50;;;;;;;13.18;66.83;101233.91;4949432;28;20051;-84
2022/04/27 04:06:26;;;;;;;7.22;6.18;;;;;;;13.54;66.20;101274.28;4946148;28;20075;-84
2022/04/27 04:08:53;;;;;;;6.65;5.65;;;;;;;13.37;66.57;101249.97;4945851;28;20060;-85
2022/04/27 04:11:20;;;;;;;7.53;6.28;;;;;;;13.42;66.15;101253.09;4929948;29;20351;-83
2022/04/27 04:13:46;;;;;;;11.48;6.28;;;;;;;13.55;66.60;101297.31;4946045;28;20416;-83
2022/04/27 04:16:13;;;;;;;6.95;6.18;;;;;;;13.36;66.54;101269.63;4931690;28;20510;-84
2022/04/27 04:18:40;;;;;;;7.65;6.30;;;;;;;13.20;66.56;101253.28;4946264;29;20212;-84
2022/04/27 04:21:07;;;;;;;8.38;6.60;;;;;;;13.38;66.76;101294.34;4945592;28;20059;-83
2022/04/27 04:23:33;;;;;;;8.77;6.18;;;;;;;13.50;67.19;101318.25;4937868;28;20050;-84
2022/04/27 04:28:46;;;;;;;9.25;6.45;;;;;;;13.53;66.84;101307.28;4950276;28;20610;-84
2022/04/27 04:31:14;;;;;;;10.27;6.20;;;;;;;13.07;66.61;101236.72;4948604;28;20074;-84
2022/04/27 04:33:41;;;;;;;6.63;5.93;;;;;;;13.18;67.24;101266.78;4949012;28;20047;-83
2022/04/27 04:36:10;;;;;;;10.57;6.90;;;;;;;13.51;66.91;101319.91;4949927;28;20062;-85
2022/04/27 04:38:38;;;;;;;10.55;6.47;;;;;;;13.45;66.93;101324.81;4948599;28;20047;-83
2022/04/27 04:41:05;;;;;;;8.25;6.47;;;;;;;13.23;67.42;101298.38;4949858;28;20051;-84
2022/04/27 04:43:32;;;;;;;7.28;6.10;;;;;;;13.36;67.79;101325.63;4960887;28;20051;-84
2022/04/27 04:45:59;;;;;;;12.80;6.80;;;;;;;13.39;67.74;101338.69;4974057;28;20035;-84
2022/04/27 04:48:26;;;;;;;9.10;5.65;;;;;;;13.32;67.93;101326.88;4965265;28;20062;-84
2022/04/27 04:50:53;;;;;;;9.48;7.00;;;;;;;13.24;67.75;101302.69;4967590;28;20050;-84
2022/04/27 04:53:20;;;;;;;9.95;6.47;;;;;;;12.87;67.76;101255.31;4968629;28;20401;-84
2022/04/27 04:55:47;;;;;;;7.65;6.45;;;;;;;13.21;68.12;101308.31;4966875;28;20057;-83
2022/04/27 04:58:13;;;;;;;7.28;6.22;;;;;;;13.31;68.23;101330.53;4966500;28;20450;-83
2022/04/27 05:00:40;;;;;;;10.55;7.38;;;;;;;13.21;68.05;101314.47;4967986;28;20055;-84
2022/04/27 05:03:07;;;;;;;8.48;7.00;;;;;;;13.53;67.40;101342.78;4966736;28;20058;-83
2022/04/27 05:05:38;;;;;;;8.50;6.85;;;;;;;13.30;67.63;101302.19;4964090;28;20058;-83
2022/04/27 05:08:06;;;;;;;8.25;6.78;;;;;;;13.22;68.18;101299.31;4946371;28;20043;-83
2022/04/27 05:10:32;;;;;;;7.75;5.20;;;;;;;13.25;67.42;101302.56;4947757;28;20058;-83
2022/04/27 05:12:59;;;;;;;6.68;5.40;;;;;;;12.99;67.00;101256.06;4941101;28;20388;-83
2022/04/27 05:15:26;;;;;;;9.45;5.70;;;;;;;13.35;67.71;101323.97;4943273;28;20047;-83
2022/04/27 05:17:52;;;;;;;8.50;5.97;;;;;;;13.55;67.13;101348.00;4948387;28;20061;-83
2022/04/27 05:20:19;;;;;;;6.28;5.68;;;;;;;13.63;66.63;101361.50;4944045;28;20063;-84
2022/04/27 05:22:46;;;;;;;7.07;6.32;;;;;;;13.50;66.11;101334.25;4927633;29;20055;-84
2022/04/27 05:25:13;;;;;;;6.97;6.00;;;;;;;13.56;65.98;101333.69;4929189;29;20067;-84
2022/04/27 05:27:43;;;;;;;8.50;6.45;;;;;;;13.63;65.60;101337.47;4928935;29;20047;-84
2022/04/27 05:33:02;;;;;;;8.27;5.78;;;;;;;13.80;65.00;101351.97;4932633;28;20055;-84
2022/04/27 05:35:28;;;;;;;7.10;5.13;;;;;;;13.94;64.94;101364.06;4966496;28;20069;-84
2022/04/27 05:37:55;;;;;;;7.03;5.70;;;;;;;13.98;64.37;101370.78;4965788;28;20046;-83
2022/04/27 05:40:25;;;;;;;6.82;6.10;;;;;;;13.97;64.31;101371.78;4965611;28;20062;-84
2022/04/27 05:42:52;;;;;;;11.27;6.05;;;;;;;13.76;64.34;101335.41;4967090;28;20090;-84
2022/04/27 05:45:19;;;;;;;7.25;6.47;;;;;;;13.00;64.14;101199.94;4965591;28;20391;-84
2022/04/27 05:47:46;;;;;;;8.30;6.50;;;;;;;14.11;63.80;101393.56;4964729;28;20055;-84
2022/04/27 05:50:13;;;;;;;8.80;6.03;;;;;;;14.15;63.98;101394.16;4966731;28;20245;-83
2022/04/27 05:52:52;;;;;;;9.32;6.15;;;;;;;13.86;63.12;101338.91;4965945;28;20405;-84
2022/04/27 05:55:19;;;;;;;7.50;6.00;;;;;;;13.81;62.98;101333.16;4965958;28;20683;-84
2022/04/27 05:57:49;;;;;;;8.13;6.07;;;;;;;14.05;62.65;101366.56;4965994;28;20051;-84
2022/04/27 06:00:16;;;;;;;7.10;6.03;;;;;;;14.04;62.67;101351.56;4966643;28;20096;-83
2022/04/27 06:02:45;;;;;;;10.65;6.07;;;;;;;14.36;61.91;101402.00;4965254;28;20504;-84
2022/04/27 06:05:13;;;;;;;8.35;6.00;;;;;;;13.85;61.89;101313.19;4965301;28;20784;-84
2022/04/27 06:07:40;;;;;;;6.78;6.07;;;;;;;14.21;61.42;101350.84;4966901;28;20054;-84
2022/04/27 06:10:08;;;;;;;10.52;6.47;;;;;;;14.45;61.44;101386.94;4964552;28;20051;-83
2022/04/27 06:12:38;;;;;;;13.93;6.68;;;;;;;14.49;61.08;101396.34;4965184;28;20054;-83
2022/04/27 06:15:10;;;;;;;7.72;6.72;;;;;;;14.55;61.52;101395.81;4965089;28;20050;-82
2022/04/27 06:17:37;;;;;;;12.65;6.93;;;;;;;14.53;61.30;101381.72;4966517;28;20058;-83
2022/04/27 06:20:05;;;;;;;8.30;6.82;;;;;;;14.77;60.96;101409.84;4961647;28;20072;-83
2022/04/27 06:22:31;;;;;;;7.40;6.00;;;;;;;14.78;60.95;101406.19;4944789;28;20055;-83
2022/04/27 06:24:58;;;;;;;11.07;6.60;;;;;;;14.85;60.96;101413.47;4944773;28;20062;-84
2022/04/27 06:27:25;;;;;;;9.55;6.63;;;;;;;14.70;61.43;101374.84;4961173;28;20067;-83
2022/04/27 06:29:51;;;;;;;9.57;6.28;;;;;;;14.94;60.04;101417.13;4945613;28;20047;-84
2022/04/27 06:32:18;;;;;;;7.55;6.75;;;;;;;14.91;59.84;101407.56;4958949;28;20501;-84
2022/04/27 06:34:45;;;;;;;8.52;7.13;;;;;;;14.93;59.48;101399.41;4966134;28;20050;-82
2022/04/27 06:37:11;;;;;;;10.48;7.15;;;;;;;14.45;59.82;101315.66;4965086;28;20070;-82
2022/04/27 06:39:40;;;;;;;7.90;7.03;;;;;;;14.55;59.58;101318.34;4964986;28;20057;-84
2022/04/27 06:42:07;;;;;;;14.35;8.00;;;;;;;15.16;59.37;101422.09;4964820;28;20498;-83
2022/04/27 06:44:34;;;;;;;9.77;8.77;;;;;;;14.68;59.99;101337.56;4964492;28;20141;-84
2022/04/27 06:47:05;;;;;;;13.68;9.45;;;;;;;15.18;60.27;101406.75;4964880;28;20133;-83
2022/04/27 06:49:32;;;;;;;12.93;10.13;;;;;;;15.32;60.92;101421.50;4965005;28;20054;-84
2022/04/27 06:51:59;;;;;;;14.68;10.05;;;;;;;15.36;60.13;101422.91;4966579;28;20058;-84
2022/04/27 06:54:26;;;;;;;12.20;10.05;;;;;;;15.35;60.28;101409.66;4964989;28;20058;-84
2022/04/27 06:56:53;;;;;;;12.40;9.63;;;;;;;15.56;59.74;101434.34;4965287;28;20050;-85
2022/04/27 06:59:19;;;;;;;15.35;10.82;;;;;;;15.69;60.26;101438.50;4966719;28;20159;-83
2022/04/27 07:01:46;;;;;;;12.80;10.50;;;;;;;15.88;59.36;101443.78;4967326;28;20066;-84
2022/04/27 07:04:13;;;;;;;14.85;11.63;;;;;;;15.74;59.58;101436.25;4968495;28;20055;-84
2022/04/27 07:06:40;;;;;;;12.38;10.50;;;;;;;15.52;59.36;101405.34;4966338;28;20046;-85
2022/04/27 07:09:10;;;;;;;13.30;10.23;;;;;;;15.77;60.08;101447.47;4966090;28;20054;-84
2022/04/27 07:11:40;;;;;;;13.82;10.98;;;;;;;15.81;60.18;101448.88;4964910;28;20054;-84
2022/04/27 07:14:08;;;;;;;14.20;10.57;;;;;;;15.57;59.72;101411.09;4965202;28;20086;-83
2022/04/27 07:16:41;;;;;;;14.35;10.68;;;;;;;15.17;59.40;101327.53;4964967;28;20484;-83
2022/04/27 07:19:08;;;;;;;14.05;10.60;;;;;;;14.90;59.94;101298.09;4964946;28;20109;-83
2022/04/27 07:21:35;;;;;;;15.10;11.25;;;;;;;15.86;59.96;101461.81;4948613;28;20056;-84
2022/04/27 07:24:02;;;;;;;16.70;9.93;;;;;;;15.64;60.02;101427.41;4945662;28;20422;-85
2022/04/27 07:26:30;;;;;;;14.18;10.57;;;;;;;15.70;60.03;101440.19;4936301;28;20051;-83
2022/04/27 07:28:57;;;;;;;11.10;9.90;;;;;;;15.91;59.68;101461.38;4947767;28;20969;-83
2022/04/27 07:31:23;;;;;;;16.75;11.27;;;;;;;15.38;59.65;101371.91;4948482;28;20537;-83
2022/04/27 07:33:50;;;;;;;11.80;10.32;;;;;;;15.77;60.35;101458.19;4952965;28;20047;-83
2022/04/27 07:36:17;;;;;;;19.27;12.27;;;;;;;15.72;59.97;101465.00;4948853;28;20516;-83
2022/04/27 07:38:44;;;;;;;17.77;11.60;;;;;;;15.79;60.08;101476.78;4948651;28;20506;-84
2022/04/27 07:41:12;;;;;;;13.07;11.68;;;;;;;15.78;60.30;101473.28;4948962;28;20477;-83
2022/04/27 07:43:39;;;;;;;16.48;12.18;;;;;;;15.70;60.54;101450.91;4948980;28;20438;-83
2022/04/27 07:46:07;;;;;;;16.48;11.70;;;;;;;15.90;60.79;101490.00;4948589;28;20067;-83
2022/04/27 07:48:37;;;;;;;17.98;12.88;;;;;;;15.88;60.80;101475.06;4950048;28;20075;-83
2022/04/27 07:51:07;;;;;;;21.30;12.70;;;;;;;15.60;60.47;101422.31;4948654;28;20055;-83
2022/04/27 07:53:35;;;;;;;16.92;13.20;;;;;;;16.19;60.30;101495.16;4948803;28;20062;-83
2022/04/27 07:56:04;;;;;;;19.73;14.65;;;;;;;16.11;59.61;101492.38;4948735;28;20047;-83
2022/04/27 07:58:31;;;;;;;20.20;14.60;;;;;;;15.85;60.21;101446.75;4948732;28;20055;-84
2022/04/27 08:00:58;;;;;;;20.30;14.38;;;;;;;15.75;60.48;101433.44;4950041;28;20062;-83
2022/04/27 08:03:25;;;;;;;20.27;15.38;;;;;;;16.12;60.44;101498.59;4948011;28;20421;-84
2022/04/27 08:05:52;;;;;;;20.08;16.10;;;;;;;16.11;60.92;101486.19;4948673;28;20440;-84
2022/04/27 08:08:19;;;;;;;19.73;16.63;;;;;;;16.09;60.94;101485.47;4948286;28;20055;-83
2022/04/27 08:10:52;;;;;;;21.90;16.95;;;;;;;16.26;60.54;101495.38;4948400;28;20138;-84
2022/04/27 08:13:18;;;;;;;23.58;15.85;;;;;;;16.26;61.06;101503.41;4948500;28;20221;-84
2022/04/27 08:15:46;;;;;;;24.27;16.13;;;;;;;16.19;61.05;101483.56;4948732;28;20063;-83
2022/04/27 08:18:13;;;;;;;19.17;15.75;;;;;;;16.26;60.61;101468.59;4948404;28;20047;-82
2022/04/27 08:23:29;;;;;;;20.48;16.58;;;;;;;16.53;60.56;101496.31;4949548;28;20062;-82
2022/04/27 08:26:02;;;;;;;18.85;16.05;;;;;;;16.33;60.25;101447.38;4948020;28;20339;-84
2022/04/27 08:28:29;;;;;;;19.08;15.57;;;;;;;16.50;60.37;101496.63;4967670;28;20047;-82
2022/04/27 08:30:57;;;;;;;21.73;16.67;;;;;;;16.18;60.57;101418.44;4968424;28;20054;-83
2022/04/27 08:33:24;;;;;;;28.10;17.02;;;;;;;16.64;60.69;101514.84;4966654;28;20054;-83
2022/04/27 08:35:59;;;;;;;19.85;15.82;;;;;;;16.27;60.62;101440.81;4967486;28;20082;-84
2022/04/27 08:38:51;;;;;;;18.00;13.82;;;;;;;16.70;60.53;101516.91;4967098;28;20137;-82
2022/04/27 08:41:18;;;;;;;16.75;13.93;;;;;;;16.51;60.67;101461.63;4967183;28;20055;-83
2022/04/27 08:43:46;;;;;;;19.90;13.35;;;;;;;16.73;60.31;101471.03;4969245;28;20548;-83
2022/04/27 08:46:15;;;;;;;14.55;12.95;;;;;;;16.70;60.25;101455.25;4972779;28;20051;-83
2022/04/27 08:48:47;;;;;;;24.73;14.45;;;;;;;17.06;59.84;101522.25;4976984;28;20062;-84
2022/04/27 08:51:14;;;;;;;16.35;12.48;;;;;;;17.09;60.13;101532.69;4983683;28;20062;-84
2022/04/27 08:53:45;;;;;;;20.10;13.27;;;;;;;17.20;60.04;101532.41;4971583;28;20062;-83
2022/04/27 08:56:13;;;;;;;21.70;12.23;;;;;;;17.35;59.67;101537.22;4967195;28;20055;-83
2022/04/27 08:58:40;;;;;;;18.02;12.63;;;;;;;17.06;59.85;101490.91;4966990;28;20065;-84
2022/04/27 09:01:09;;;;;;;16.42;12.52;;;;;;;16.88;59.88;101474.84;4970057;28;20050;-82
2022/04/27 09:03:40;;;;;;;14.40;12.07;;;;;;;17.37;60.14;101543.25;4966515;28;20575;-83
2022/04/27 09:06:12;;;;;;;15.90;12.07;;;;;;;17.41;59.98;101534.75;4968350;28;20493;-83
2022/04/27 09:08:45;;;;;;;18.08;13.77;;;;;;;17.46;59.79;101543.16;4968096;28;20396;-85
2022/04/27 09:11:13;;;;;;;17.90;13.10;;;;;;;17.35;59.36;101513.88;4966003;28;20409;-85
2022/04/27 09:13:44;;;;;;;15.70;12.15;;;;;;;17.54;59.75;101542.34;4966696;28;20530;-84
2022/04/27 09:16:11;;;;;;;16.10;12.90;;;;;;;17.56;59.82;101510.00;4966657;28;20572;-85
2022/04/27 09:21:52;;;;;;;;;;;;;;;17.97;59.01;101539.75;4952756;28;20054;-84
2022/04/27 09:24:23;;;;;;;16.65;13.45;;;;;;;18.06;59.39;101538.75;4950023;28;19926;-83
2022/04/27 09:27:23;;;;;;;18.92;13.35;;;;;;;18.02;58.68;101502.50;4946942;28;20058;-82
2022/04/27 09:30:04;;;;;;;15.10;12.35;;;;;;;18.11;58.35;101512.25;4915816;28;20057;-83
2022/04/27 09:32:31;;;;;;;17.50;14.20;;;;;;;18.13;58.54;101503.03;4946668;29;20521;-84
2022/04/27 09:35:03;;;;;;;17.10;14.20;;;;;;;18.04;58.29;101474.44;4946769;28;20101;-83
2022/04/27 09:37:38;;;;;;;16.55;13.27;;;;;;;17.40;58.99;101333.59;4946496;28;20047;-83
2022/04/27 09:40:06;;;;;;;17.65;13.93;;;;;;;18.72;57.94;101531.69;4947208;28;20055;-86
2022/04/27 09:42:45;;;;;;;20.23;13.52;;;;;;;18.56;57.12;101490.31;4952045;28;20078;-82
2022/04/27 09:45:19;;;;;;;19.20;14.68;;;;;;;18.60;57.37;101487.31;4965675;28;20055;-83
2022/04/27 09:47:48;;;;;;;15.18;12.48;;;;;;;18.26;57.59;101415.72;4965205;28;20066;-83
2022/04/27 09:50:18;;;;;;;15.98;11.85;;;;;;;19.06;57.10;101533.41;4966957;28;20069;-84
2022/04/27 09:52:46;;;;;;;17.30;12.32;;;;;;;18.09;56.67;101372.69;4966959;28;20054;-83
2022/04/27 09:55:13;;;;;;;18.02;13.52;;;;;;;18.98;55.71;101470.50;4965064;28;20055;-83
2022/04/27 09:57:53;;;;;;;16.00;12.75;;;;;;;19.18;55.93;101491.66;4965219;28;20055;-83
2022/04/27 10:00:20;;;;;;;14.07;11.65;;;;;;;18.89;55.55;101444.63;4964943;28;20274;-83
2022/04/27 10:02:48;;;;;;;19.33;12.88;;;;;;;19.36;55.70;101529.97;4961680;28;20070;-83
2022/04/27 10:05:15;;;;;;;16.27;12.80;;;;;;;19.56;55.83;101537.66;4960301;28;20145;-84
2022/04/27 10:07:42;;;;;;;17.48;15.00;;;;;;;19.15;55.14;101451.59;4962795;28;20138;-83
2022/04/27 10:10:10;;;;;;;15.30;12.52;;;;;;;18.98;55.39;101446.28;4963392;28;20101;-84
2022/04/27 10:12:39;;;;;;;14.88;12.45;;;;;;;19.65;55.17;101528.53;4963743;28;20059;-84
2022/04/27 10:15:06;;;;;;;18.13;12.80;;;;;;;19.60;54.36;101474.38;4965861;28;20643;-85
2022/04/27 10:17:34;;;;;;;16.40;12.27;;;;;;;19.97;54.51;101532.16;4965054;28;20073;-84
2022/04/27 10:20:01;;;;;;;21.10;13.55;;;;;;;20.13;54.37;101518.59;4962311;28;20055;-84
2022/04/27 10:22:32;;;;;;;16.55;12.50;;;;;;;20.23;54.01;101513.81;4946897;28;20512;-85
2022/04/27 10:25:07;;;;;;;;;;;;;;;20.44;54.12;101525.84;4947219;28;20059;-86
2022/04/27 10:27:39;;;;;;;15.60;11.93;;;;;;;20.72;53.69;101522.63;4947986;28;19927;-84
2022/04/27 10:30:07;;;;;;;14.32;11.35;;;;;;;20.86;53.55;101532.63;4946784;28;20539;-85
2022/04/27 10:32:40;;;;;;;12.57;11.25;;;;;;;21.02;53.00;101527.09;4946690;28;20082;-83
2022/04/27 10:35:17;;;;;;;14.40;12.68;;;;;;;21.17;52.21;101527.13;4947839;28;20128;-83
2022/04/27 10:37:52;;;;;;;14.73;11.63;;;;;;;21.22;52.15;101529.28;4962523;28;20441;-83
2022/04/27 10:40:42;;;;;;;14.73;11.60;;;;;;;21.04;51.96;101468.34;4948079;28;20062;-83
2022/04/27 10:43:11;;;;;;;14.48;12.02;;;;;;;21.76;50.69;101531.72;4941255;28;20098;-83
2022/04/27 10:45:48;;;;;;;15.98;11.93;;;;;;;21.52;50.11;101463.44;4948171;28;20077;-83
2022/04/27 10:48:14;;;;;;;13.57;10.38;;;;;;;22.02;50.05;101530.41;4946940;28;20055;-83
2022/04/27 10:50:55;;;;;;;14.35;12.85;;;;;;;20.64;49.44;101316.63;4962373;28;20505;-83
2022/04/27 10:53:24;;;;;;;15.82;11.65;;;;;;;21.98;49.50;101532.63;4946527;28;20398;-83
2022/04/27 10:56:02;;;;;;;12.60;11.15;;;;;;;21.89;48.75;101496.75;4949452;28;20050;-82
2022/04/27 10:58:37;;;;;;;12.38;10.52;;;;;;;22.28;49.14;101528.03;4949615;28;20136;-83
2022/04/27 11:01:09;;;;;;;11.43;9.85;;;;;;;22.49;48.42;101529.06;4950480;28;20520;-83
2022/04/27 11:03:38;;;;;;;12.80;11.18;;;;;;;21.74;48.59;101382.44;4951591;28;20063;-82
2022/04/27 11:06:06;;;;;;;12.48;11.05;;;;;;;22.75;48.28;101514.97;4950506;28;20482;-82
2022/04/27 11:08:36;;;;;;;12.68;11.10;;;;;;;22.69;48.50;101519.28;4950558;28;20066;-82
2022/04/27 11:11:06;;;;;;;11.77;10.57;;;;;;;22.31;48.58;101492.50;4951024;28;20216;-84
2022/04/27 11:13:35;;;;;;;11.60;10.25;;;;;;;22.07;49.45;101527.97;4951776;28;20433;-82
2022/04/27 11:16:13;;;;;;;11.48;9.30;;;;;;;21.96;49.70;101530.09;4953044;28;20142;-82
2022/04/27 11:18:50;;;;;;;10.68;8.75;;;;;;;22.00;49.36;101513.53;4952648;28;20075;-82
2022/04/27 11:21:18;;;;;;;12.45;10.23;;;;;;;21.91;49.76;101505.50;4948497;28;20458;-83
2022/04/27 11:23:45;;;;;;;11.35;9.18;;;;;;;22.22;49.83;101538.78;4947476;28;20067;-82
2022/04/27 11:26:15;;;;;;;10.63;9.45;;;;;;;22.23;49.82;101530.44;4931067;29;20052;-83
2022/04/27 11:28:44;;;;;;;10.40;9.25;;;;;;;22.30;49.32;101498.91;4947021;28;20055;-83
2022/04/27 11:31:12;;;;;;;9.95;9.05;;;;;;;22.58;48.57;101507.09;4946675;28;20063;-83
2022/04/27 11:33:40;;;;;;;10.75;8.98;;;;;;;22.87;47.70;101523.41;4946752;28;20055;-84
2022/04/27 11:36:19;;;;;;;9.70;8.45;;;;;;;22.58;47.45;101454.88;4946568;28;20501;-82
2022/04/27 11:38:46;;;;;;;9.95;8.35;;;;;;;22.96;47.47;101503.25;4946753;28;20059;-84
2022/04/27 11:41:14;;;;;;;10.02;8.13;;;;;;;23.08;47.03;101501.72;4946590;28;20062;-82
2022/04/27 11:43:41;;;;;;;11.07;9.98;;;;;;;23.46;46.68;101523.84;4932201;29;20051;-84